sensor_id;sensor_type;location;lat;lon;timestamp;P1;durP1;ratioP1;P2;durP2;ratioP2
18778;SDS011;9518;51.720;14.384;2022-07-23T00:00:28;1497.17;;;997.90;;
18778;SDS011;9518;51.720;14.384;2022-07-23T00:02:55;1913.53;;;999.90;;
18778;SDS011;9518;51.720;14.384;2022-07-23T00:05:22;859.07;;;766.27;;
18778;SDS011;9518;51.720;14.384;2022-07-23T00:07:49;777.93;;;703.50;;
18778;SDS011;9518;51.720;14.384;2022-07-23T00:10:17;1047.30;;;843.07;;
18778;SDS011;9518;51.720;14.384;2022-07-23T00:12:44;1219.63;;;912.97;;
18778;SDS011;9518;51.720;14.384;2022-07-23T00:15:11;1806.13;;;999.90;;
18778;SDS011;9518;51.720;14.384;2022-07-23T00:17:38;710.07;;;652.87;;
18778;SDS011;9518;51.720;14.384;2022-07-23T00:20:05;1325.43;;;990.33;;
18778;SDS011;9518;51.720;14.384;2022-07-23T00:22:33;728.33;;;664.90;;
18778;SDS011;9518;51.720;14.384;2022-07-23T00:25:00;701.50;;;643.70;;
18778;SDS011;9518;51.720;14.384;2022-07-23T00:27:28;1257.60;;;916.83;;
18778;SDS011;9518;51.720;14.384;2022-07-23T00:29:55;1976.63;;;999.90;;
18778;SDS011;9518;51.720;14.384;2022-07-23T00:32:22;1999.90;;;999.90;;
18778;SDS011;9518;51.720;14.384;2022-07-23T00:34:49;1999.90;;;999.90;;
18778;SDS011;9518;51.720;14.384;2022-07-23T00:37:16;1999.90;;;999.90;;
18778;SDS011;9518;51.720;14.384;2022-07-23T00:39:43;1999.90;;;999.90;;
18778;SDS011;9518;51.720;14.384;2022-07-23T00:42:10;1999.90;;;999.90;;
18778;SDS011;9518;51.720;14.384;2022-07-23T00:44:38;1999.90;;;999.90;;
18778;SDS011;9518;51.720;14.384;2022-07-23T00:47:05;1999.90;;;999.90;;
18778;SDS011;9518;51.720;14.384;2022-07-23T00:49:32;1999.90;;;999.90;;
18778;SDS011;9518;51.720;14.384;2022-07-23T00:52:00;1657.53;;;999.90;;
18778;SDS011;9518;51.720;14.384;2022-07-23T00:54:28;1999.90;;;999.90;;
18778;SDS011;9518;51.720;14.384;2022-07-23T00:56:55;1999.90;;;999.90;;
18778;SDS011;9518;51.720;14.384;2022-07-23T00:59:22;1999.90;;;999.90;;
18778;SDS011;9518;51.720;14.384;2022-07-23T01:01:50;1999.90;;;816.67;;
18778;SDS011;9518;51.720;14.384;2022-07-23T01:04:17;1820.57;;;584.07;;
18778;SDS011;9518;51.720;14.384;2022-07-23T01:06:45;1999.90;;;999.90;;
18778;SDS011;9518;51.720;14.384;2022-07-23T01:09:12;1489.97;;;999.90;;
18778;SDS011;9518;51.720;14.384;2022-07-23T01:11:39;1122.63;;;997.20;;
18778;SDS011;9518;51.720;14.384;2022-07-23T01:14:10;1961.83;;;999.90;;
18778;SDS011;9518;51.720;14.384;2022-07-23T01:16:39;1142.67;;;999.90;;
18778;SDS011;9518;51.720;14.384;2022-07-23T01:19:08;1869.30;;;999.90;;
18778;SDS011;9518;51.720;14.384;2022-07-23T01:21:36;1729.10;;;999.90;;
18778;SDS011;9518;51.720;14.384;2022-07-23T01:24:09;657.83;;;611.07;;
18778;SDS011;9518;51.720;14.384;2022-07-23T01:26:37;1162.97;;;930.10;;
18778;SDS011;9518;51.720;14.384;2022-07-23T01:29:05;541.07;;;504.77;;
18778;SDS011;9518;51.720;14.384;2022-07-23T01:31:32;471.40;;;443.97;;
18778;SDS011;9518;51.720;14.384;2022-07-23T01:33:59;453.03;;;426.47;;
18778;SDS011;9518;51.720;14.384;2022-07-23T01:36:26;444.40;;;418.77;;
18778;SDS011;9518;51.720;14.384;2022-07-23T01:38:53;531.20;;;497.87;;
18778;SDS011;9518;51.720;14.384;2022-07-23T01:41:21;646.27;;;601.27;;
18778;SDS011;9518;51.720;14.384;2022-07-23T01:43:50;799.17;;;730.47;;
18778;SDS011;9518;51.720;14.384;2022-07-23T01:46:17;1624.83;;;999.90;;
18778;SDS011;9518;51.720;14.384;2022-07-23T01:48:44;1999.90;;;999.90;;
18778;SDS011;9518;51.720;14.384;2022-07-23T01:51:11;1936.43;;;999.90;;
18778;SDS011;9518;51.720;14.384;2022-07-23T01:53:37;1128.23;;;996.27;;
18778;SDS011;9518;51.720;14.384;2022-07-23T01:56:04;498.13;;;467.47;;
18778;SDS011;9518;51.720;14.384;2022-07-23T01:58:33;534.40;;;501.33;;
18778;SDS011;9518;51.720;14.384;2022-07-23T02:01:00;1618.10;;;964.43;;
18778;SDS011;9518;51.720;14.384;2022-07-23T02:03:27;1026.83;;;925.03;;
18778;SDS011;9518;51.720;14.384;2022-07-23T02:05:54;730.83;;;675.20;;
18778;SDS011;9518;51.720;14.384;2022-07-23T02:08:20;1999.90;;;999.90;;
18778;SDS011;9518;51.720;14.384;2022-07-23T02:10:47;1627.73;;;999.90;;
18778;SDS011;9518;51.720;14.384;2022-07-23T02:13:16;1289.23;;;999.90;;
18778;SDS011;9518;51.720;14.384;2022-07-23T02:15:44;1004.33;;;904.67;;
18778;SDS011;9518;51.720;14.384;2022-07-23T02:18:11;1985.90;;;999.90;;
18778;SDS011;9518;51.720;14.384;2022-07-23T02:20:38;1220.63;;;999.90;;
18778;SDS011;9518;51.720;14.384;2022-07-23T02:23:05;1904.90;;;999.90;;
18778;SDS011;9518;51.720;14.384;2022-07-23T02:25:32;1797.27;;;999.90;;
18778;SDS011;9518;51.720;14.384;2022-07-23T02:28:00;1695.60;;;999.90;;
18778;SDS011;9518;51.720;14.384;2022-07-23T02:30:26;1780.07;;;823.83;;
18778;SDS011;9518;51.720;14.384;2022-07-23T02:32:55;1999.90;;;999.90;;
18778;SDS011;9518;51.720;14.384;2022-07-23T02:35:22;1999.90;;;999.90;;
18778;SDS011;9518;51.720;14.384;2022-07-23T02:37:49;1999.90;;;999.90;;
18778;SDS011;9518;51.720;14.384;2022-07-23T02:40:16;1999.90;;;999.90;;
18778;SDS011;9518;51.720;14.384;2022-07-23T02:42:43;1999.90;;;999.90;;
18778;SDS011;9518;51.720;14.384;2022-07-23T02:45:10;1614.43;;;715.30;;
18778;SDS011;9518;51.720;14.384;2022-07-23T02:47:36;1527.07;;;599.53;;
18778;SDS011;9518;51.720;14.384;2022-07-23T02:50:05;1999.90;;;999.90;;
18778;SDS011;9518;51.720;14.384;2022-07-23T02:52:33;1460.03;;;999.90;;
18778;SDS011;9518;51.720;14.384;2022-07-23T02:55:00;855.93;;;789.77;;
18778;SDS011;9518;51.720;14.384;2022-07-23T02:57:29;807.70;;;746.07;;
18778;SDS011;9518;51.720;14.384;2022-07-23T02:59:56;948.70;;;861.47;;
18778;SDS011;9518;51.720;14.384;2022-07-23T03:02:23;1063.80;;;947.20;;
18778;SDS011;9518;51.720;14.384;2022-07-23T03:04:50;1452.30;;;999.90;;
18778;SDS011;9518;51.720;14.384;2022-07-23T03:07:18;1239.30;;;999.90;;
18778;SDS011;9518;51.720;14.384;2022-07-23T03:09:45;1820.33;;;999.90;;
18778;SDS011;9518;51.720;14.384;2022-07-23T03:12:12;1999.90;;;999.90;;
18778;SDS011;9518;51.720;14.384;2022-07-23T03:14:39;1133.60;;;999.90;;
18778;SDS011;9518;51.720;14.384;2022-07-23T03:17:06;1240.53;;;999.90;;
18778;SDS011;9518;51.720;14.384;2022-07-23T03:19:33;1071.80;;;961.37;;
18778;SDS011;9518;51.720;14.384;2022-07-23T03:22:01;1411.60;;;999.90;;
18778;SDS011;9518;51.720;14.384;2022-07-23T03:24:30;1969.93;;;999.90;;
18778;SDS011;9518;51.720;14.384;2022-07-23T03:27:10;1999.90;;;999.90;;
18778;SDS011;9518;51.720;14.384;2022-07-23T03:29:37;1999.90;;;999.90;;
18778;SDS011;9518;51.720;14.384;2022-07-23T03:32:04;1726.87;;;999.90;;
18778;SDS011;9518;51.720;14.384;2022-07-23T03:34:31;1780.63;;;999.90;;
18778;SDS011;9518;51.720;14.384;2022-07-23T03:36:58;1779.80;;;999.90;;
18778;SDS011;9518;51.720;14.384;2022-07-23T03:39:25;1999.90;;;999.90;;
18778;SDS011;9518;51.720;14.384;2022-07-23T03:41:53;1999.90;;;999.90;;
18778;SDS011;9518;51.720;14.384;2022-07-23T03:44:20;1766.73;;;829.33;;
18778;SDS011;9518;51.720;14.384;2022-07-23T03:46:47;1487.97;;;999.90;;
18778;SDS011;9518;51.720;14.384;2022-07-23T03:49:14;1108.53;;;992.17;;
18778;SDS011;9518;51.720;14.384;2022-07-23T03:51:41;996.00;;;902.03;;
18778;SDS011;9518;51.720;14.384;2022-07-23T03:54:08;818.23;;;752.80;;
18778;SDS011;9518;51.720;14.384;2022-07-23T03:56:35;636.90;;;592.27;;
18778;SDS011;9518;51.720;14.384;2022-07-23T03:59:03;760.90;;;699.93;;
18778;SDS011;9518;51.720;14.384;2022-07-23T04:01:30;470.23;;;442.17;;
18778;SDS011;9518;51.720;14.384;2022-07-23T04:03:57;539.60;;;507.20;;
18778;SDS011;9518;51.720;14.384;2022-07-23T04:06:24;432.77;;;408.77;;
18778;SDS011;9518;51.720;14.384;2022-07-23T04:08:51;998.93;;;901.77;;
18778;SDS011;9518;51.720;14.384;2022-07-23T04:11:18;1378.00;;;999.90;;
18778;SDS011;9518;51.720;14.384;2022-07-23T04:13:45;1999.90;;;999.90;;
18778;SDS011;9518;51.720;14.384;2022-07-23T04:16:13;1999.90;;;999.90;;
18778;SDS011;9518;51.720;14.384;2022-07-23T04:18:43;1561.37;;;999.90;;
18778;SDS011;9518;51.720;14.384;2022-07-23T04:21:10;929.80;;;844.00;;
18778;SDS011;9518;51.720;14.384;2022-07-23T04:23:37;1053.43;;;945.00;;
18778;SDS011;9518;51.720;14.384;2022-07-23T04:26:03;1434.60;;;999.90;;
18778;SDS011;9518;51.720;14.384;2022-07-23T04:28:30;1719.93;;;999.90;;
18778;SDS011;9518;51.720;14.384;2022-07-23T04:30:58;1732.47;;;899.07;;
18778;SDS011;9518;51.720;14.384;2022-07-23T04:33:26;1619.93;;;999.90;;
18778;SDS011;9518;51.720;14.384;2022-07-23T04:35:53;701.00;;;647.83;;
18778;SDS011;9518;51.720;14.384;2022-07-23T04:38:20;922.47;;;839.93;;
18778;SDS011;9518;51.720;14.384;2022-07-23T04:40:47;1130.77;;;998.33;;
18778;SDS011;9518;51.720;14.384;2022-07-23T04:43:17;1318.87;;;999.90;;
18778;SDS011;9518;51.720;14.384;2022-07-23T04:45:44;1312.57;;;999.90;;
18778;SDS011;9518;51.720;14.384;2022-07-23T04:48:11;649.67;;;604.70;;
18778;SDS011;9518;51.720;14.384;2022-07-23T04:50:40;708.57;;;656.13;;
18778;SDS011;9518;51.720;14.384;2022-07-23T04:53:07;855.53;;;784.63;;
18778;SDS011;9518;51.720;14.384;2022-07-23T04:55:37;969.80;;;885.17;;
18778;SDS011;9518;51.720;14.384;2022-07-23T04:58:04;811.10;;;749.83;;
18778;SDS011;9518;51.720;14.384;2022-07-23T05:00:31;509.17;;;479.23;;
18778;SDS011;9518;51.720;14.384;2022-07-23T05:02:58;787.33;;;729.00;;
18778;SDS011;9518;51.720;14.384;2022-07-23T05:05:25;550.17;;;515.83;;
18778;SDS011;9518;51.720;14.384;2022-07-23T05:07:53;644.00;;;598.00;;
18778;SDS011;9518;51.720;14.384;2022-07-23T05:10:20;626.33;;;580.20;;
18778;SDS011;9518;51.720;14.384;2022-07-23T05:12:47;666.00;;;617.90;;
18778;SDS011;9518;51.720;14.384;2022-07-23T05:15:14;958.03;;;869.97;;
18778;SDS011;9518;51.720;14.384;2022-07-23T05:17:40;1050.93;;;952.13;;
18778;SDS011;9518;51.720;14.384;2022-07-23T05:20:08;1502.17;;;999.90;;
18778;SDS011;9518;51.720;14.384;2022-07-23T05:22:35;1701.80;;;999.90;;
18778;SDS011;9518;51.720;14.384;2022-07-23T05:25:04;1999.90;;;999.90;;
18778;SDS011;9518;51.720;14.384;2022-07-23T05:27:32;1999.90;;;999.90;;
18778;SDS011;9518;51.720;14.384;2022-07-23T05:29:59;1999.90;;;999.90;;
18778;SDS011;9518;51.720;14.384;2022-07-23T05:32:26;1999.90;;;999.90;;
18778;SDS011;9518;51.720;14.384;2022-07-23T05:34:53;1999.90;;;999.90;;
18778;SDS011;9518;51.720;14.384;2022-07-23T05:37:19;1557.73;;;999.90;;
18778;SDS011;9518;51.720;14.384;2022-07-23T05:39:46;1791.30;;;999.90;;
18778;SDS011;9518;51.720;14.384;2022-07-23T05:42:15;1600.30;;;999.90;;
18778;SDS011;9518;51.720;14.384;2022-07-23T05:44:42;1999.90;;;999.90;;
18778;SDS011;9518;51.720;14.384;2022-07-23T05:47:08;1901.73;;;993.70;;
18778;SDS011;9518;51.720;14.384;2022-07-23T05:49:36;1538.00;;;999.90;;
18778;SDS011;9518;51.720;14.384;2022-07-23T05:52:04;1655.10;;;999.90;;
18778;SDS011;9518;51.720;14.384;2022-07-23T05:54:33;1673.67;;;999.90;;
18778;SDS011;9518;51.720;14.384;2022-07-23T05:57:00;1999.90;;;999.90;;
18778;SDS011;9518;51.720;14.384;2022-07-23T05:59:29;1999.90;;;999.90;;
18778;SDS011;9518;51.720;14.384;2022-07-23T06:01:56;1999.90;;;999.90;;
18778;SDS011;9518;51.720;14.384;2022-07-23T06:04:23;1999.90;;;999.90;;
18778;SDS011;9518;51.720;14.384;2022-07-23T06:06:50;1999.90;;;999.90;;
18778;SDS011;9518;51.720;14.384;2022-07-23T06:09:17;1999.90;;;999.90;;
18778;SDS011;9518;51.720;14.384;2022-07-23T06:11:44;1999.90;;;999.90;;
18778;SDS011;9518;51.720;14.384;2022-07-23T06:14:10;1999.90;;;999.90;;
18778;SDS011;9518;51.720;14.384;2022-07-23T06:16:39;1999.90;;;999.90;;
18778;SDS011;9518;51.720;14.384;2022-07-23T06:19:06;1999.90;;;999.90;;
18778;SDS011;9518;51.720;14.384;2022-07-23T06:21:33;1999.90;;;999.90;;
18778;SDS011;9518;51.720;14.384;2022-07-23T06:23:59;1999.90;;;999.90;;
18778;SDS011;9518;51.720;14.384;2022-07-23T06:26:26;1999.90;;;999.90;;
18778;SDS011;9518;51.720;14.384;2022-07-23T06:28:53;1999.90;;;999.90;;
18778;SDS011;9518;51.720;14.384;2022-07-23T06:31:20;1999.90;;;999.90;;
18778;SDS011;9518;51.720;14.384;2022-07-23T06:33:48;1999.90;;;999.90;;
18778;SDS011;9518;51.720;14.384;2022-07-23T06:36:15;1999.90;;;999.90;;
18778;SDS011;9518;51.720;14.384;2022-07-23T06:38:42;1999.90;;;999.90;;
18778;SDS011;9518;51.720;14.384;2022-07-23T06:41:09;1999.90;;;999.90;;
18778;SDS011;9518;51.720;14.384;2022-07-23T06:43:36;1999.90;;;999.90;;
18778;SDS011;9518;51.720;14.384;2022-07-23T06:46:03;1999.90;;;999.90;;
18778;SDS011;9518;51.720;14.384;2022-07-23T06:48:30;1999.90;;;999.90;;
18778;SDS011;9518;51.720;14.384;2022-07-23T06:51:00;1999.90;;;999.90;;
18778;SDS011;9518;51.720;14.384;2022-07-23T06:53:27;1999.90;;;999.90;;
18778;SDS011;9518;51.720;14.384;2022-07-23T06:55:54;1999.90;;;999.90;;
18778;SDS011;9518;51.720;14.384;2022-07-23T06:58:21;1999.90;;;999.90;;
18778;SDS011;9518;51.720;14.384;2022-07-23T07:00:48;1999.90;;;999.90;;
18778;SDS011;9518;51.720;14.384;2022-07-23T07:03:16;1999.90;;;999.90;;
18778;SDS011;9518;51.720;14.384;2022-07-23T07:05:43;1999.90;;;999.90;;
18778;SDS011;9518;51.720;14.384;2022-07-23T07:08:12;1999.90;;;999.90;;
18778;SDS011;9518;51.720;14.384;2022-07-23T07:10:39;1999.90;;;999.90;;
18778;SDS011;9518;51.720;14.384;2022-07-23T07:13:06;1999.90;;;999.90;;
18778;SDS011;9518;51.720;14.384;2022-07-23T07:15:33;1999.90;;;999.90;;
18778;SDS011;9518;51.720;14.384;2022-07-23T07:18:00;1999.90;;;999.90;;
18778;SDS011;9518;51.720;14.384;2022-07-23T07:20:26;1999.90;;;999.90;;
18778;SDS011;9518;51.720;14.384;2022-07-23T07:22:53;1999.90;;;999.90;;
18778;SDS011;9518;51.720;14.384;2022-07-23T07:25:22;1999.90;;;999.90;;
18778;SDS011;9518;51.720;14.384;2022-07-23T07:27:49;1999.90;;;999.90;;
18778;SDS011;9518;51.720;14.384;2022-07-23T07:30:16;1999.90;;;999.90;;
18778;SDS011;9518;51.720;14.384;2022-07-23T07:32:42;1999.90;;;999.90;;
18778;SDS011;9518;51.720;14.384;2022-07-23T07:35:09;1999.90;;;999.90;;
18778;SDS011;9518;51.720;14.384;2022-07-23T07:37:36;1999.90;;;999.90;;
18778;SDS011;9518;51.720;14.384;2022-07-23T07:40:04;1999.90;;;999.90;;
18778;SDS011;9518;51.720;14.384;2022-07-23T07:42:32;1999.90;;;999.90;;
18778;SDS011;9518;51.720;14.384;2022-07-23T07:44:59;1999.90;;;999.90;;
18778;SDS011;9518;51.720;14.384;2022-07-23T07:47:26;1999.90;;;999.90;;
18778;SDS011;9518;51.720;14.384;2022-07-23T07:49:53;1999.90;;;999.90;;
18778;SDS011;9518;51.720;14.384;2022-07-23T07:52:21;1999.90;;;999.90;;
18778;SDS011;9518;51.720;14.384;2022-07-23T07:54:48;1999.90;;;999.90;;
18778;SDS011;9518;51.720;14.384;2022-07-23T07:57:15;1999.90;;;999.90;;
18778;SDS011;9518;51.720;14.384;2022-07-23T07:59:43;1999.90;;;999.90;;
18778;SDS011;9518;51.720;14.384;2022-07-23T08:02:10;1622.22;;;860.83;;
18778;SDS011;9518;51.720;14.384;2022-07-23T08:04:37;636.90;;;579.00;;
18778;SDS011;9518;51.720;14.384;2022-07-23T08:07:03;884.70;;;810.47;;
18778;SDS011;9518;51.720;14.384;2022-07-23T08:09:30;968.22;;;885.00;;
18778;SDS011;9518;51.720;14.384;2022-07-23T08:12:00;986.97;;;904.67;;
18778;SDS011;9518;51.720;14.384;2022-07-23T08:14:27;1000.08;;;915.67;;
18778;SDS011;9518;51.720;14.384;2022-07-23T08:16:55;978.85;;;897.42;;
18778;SDS011;9518;51.720;14.384;2022-07-23T08:19:22;944.60;;;871.03;;
18778;SDS011;9518;51.720;14.384;2022-07-23T08:21:49;803.92;;;749.95;;
18778;SDS011;9518;51.720;14.384;2022-07-23T08:24:16;828.13;;;771.25;;
18778;SDS011;9518;51.720;14.384;2022-07-23T08:26:43;603.72;;;570.92;;
18778;SDS011;9518;51.720;14.384;2022-07-23T08:29:10;698.30;;;656.63;;
18778;SDS011;9518;51.720;14.384;2022-07-23T08:31:37;350.73;;;333.73;;
18778;SDS011;9518;51.720;14.384;2022-07-23T08:34:06;180.07;;;171.23;;
18778;SDS011;9518;51.720;14.384;2022-07-23T08:36:33;222.77;;;211.88;;
18778;SDS011;9518;51.720;14.384;2022-07-23T08:39:00;225.10;;;214.27;;
18778;SDS011;9518;51.720;14.384;2022-07-23T08:41:28;366.77;;;348.60;;
18778;SDS011;9518;51.720;14.384;2022-07-23T08:43:57;458.98;;;435.48;;
18778;SDS011;9518;51.720;14.384;2022-07-23T08:46:26;508.55;;;482.08;;
18778;SDS011;9518;51.720;14.384;2022-07-23T08:48:53;539.97;;;511.27;;
18778;SDS011;9518;51.720;14.384;2022-07-23T08:51:23;535.90;;;507.13;;
18778;SDS011;9518;51.720;14.384;2022-07-23T08:53:53;521.05;;;493.63;;
18778;SDS011;9518;51.720;14.384;2022-07-23T08:56:23;524.40;;;496.45;;
18778;SDS011;9518;51.720;14.384;2022-07-23T08:58:50;484.50;;;459.98;;
18778;SDS011;9518;51.720;14.384;2022-07-23T09:01:20;359.17;;;341.95;;
18778;SDS011;9518;51.720;14.384;2022-07-23T09:03:47;143.35;;;136.60;;
18778;SDS011;9518;51.720;14.384;2022-07-23T09:06:14;56.58;;;53.35;;
18778;SDS011;9518;51.720;14.384;2022-07-23T09:08:43;316.55;;;301.60;;
18778;SDS011;9518;51.720;14.384;2022-07-23T09:11:11;352.80;;;335.48;;
18778;SDS011;9518;51.720;14.384;2022-07-23T09:13:42;376.63;;;358.30;;
18778;SDS011;9518;51.720;14.384;2022-07-23T09:16:13;395.33;;;375.42;;
18778;SDS011;9518;51.720;14.384;2022-07-23T09:18:43;91.97;;;87.43;;
18778;SDS011;9518;51.720;14.384;2022-07-23T09:21:12;81.97;;;77.75;;
18778;SDS011;9518;51.720;14.384;2022-07-23T09:23:47;195.00;;;185.82;;
18778;SDS011;9518;51.720;14.384;2022-07-23T09:26:21;338.30;;;321.85;;
18778;SDS011;9518;51.720;14.384;2022-07-23T09:28:52;417.48;;;396.50;;
18778;SDS011;9518;51.720;14.384;2022-07-23T09:31:20;495.25;;;469.67;;
18778;SDS011;9518;51.720;14.384;2022-07-23T09:33:48;542.90;;;513.95;;
18778;SDS011;9518;51.720;14.384;2022-07-23T09:36:15;585.47;;;553.33;;
18778;SDS011;9518;51.720;14.384;2022-07-23T09:38:55;546.70;;;517.67;;
18778;SDS011;9518;51.720;14.384;2022-07-23T09:41:21;558.85;;;529.33;;
18778;SDS011;9518;51.720;14.384;2022-07-23T09:43:54;561.40;;;531.55;;
18778;SDS011;9518;51.720;14.384;2022-07-23T09:46:22;559.30;;;530.03;;
18778;SDS011;9518;51.720;14.384;2022-07-23T09:48:50;545.67;;;516.67;;
18778;SDS011;9518;51.720;14.384;2022-07-23T09:51:18;573.25;;;542.15;;
18778;SDS011;9518;51.720;14.384;2022-07-23T09:53:48;584.03;;;552.65;;
18778;SDS011;9518;51.720;14.384;2022-07-23T09:56:17;574.17;;;543.08;;
18778;SDS011;9518;51.720;14.384;2022-07-23T09:58:46;580.95;;;549.72;;
18778;SDS011;9518;51.720;14.384;2022-07-23T10:01:16;589.53;;;557.50;;
18778;SDS011;9518;51.720;14.384;2022-07-23T10:03:44;577.05;;;545.67;;
18778;SDS011;9518;51.720;14.384;2022-07-23T10:06:12;586.33;;;554.65;;
18778;SDS011;9518;51.720;14.384;2022-07-23T10:08:40;574.28;;;543.60;;
18778;SDS011;9518;51.720;14.384;2022-07-23T10:11:07;578.85;;;547.90;;
18778;SDS011;9518;51.720;14.384;2022-07-23T10:16:22;575.40;;;544.88;;
18778;SDS011;9518;51.720;14.384;2022-07-23T10:18:50;571.67;;;541.35;;
18778;SDS011;9518;51.720;14.384;2022-07-23T10:21:18;571.08;;;540.72;;
18778;SDS011;9518;51.720;14.384;2022-07-23T10:23:52;570.55;;;540.25;;
18778;SDS011;9518;51.720;14.384;2022-07-23T10:26:33;593.80;;;561.72;;
18778;SDS011;9518;51.720;14.384;2022-07-23T10:29:12;582.53;;;551.17;;
18778;SDS011;9518;51.720;14.384;2022-07-23T10:31:54;604.42;;;571.53;;
18778;SDS011;9518;51.720;14.384;2022-07-23T10:34:25;593.00;;;560.83;;
18778;SDS011;9518;51.720;14.384;2022-07-23T10:37:07;618.22;;;584.17;;
18778;SDS011;9518;51.720;14.384;2022-07-23T10:39:42;576.90;;;545.90;;
18778;SDS011;9518;51.720;14.384;2022-07-23T10:42:09;624.92;;;590.47;;
18778;SDS011;9518;51.720;14.384;2022-07-23T10:44:40;628.00;;;593.08;;
18778;SDS011;9518;51.720;14.384;2022-07-23T10:47:08;640.42;;;604.05;;
18778;SDS011;9518;51.720;14.384;2022-07-23T10:49:50;621.33;;;586.38;;
18778;SDS011;9518;51.720;14.384;2022-07-23T10:52:20;599.33;;;565.95;;
18778;SDS011;9518;51.720;14.384;2022-07-23T10:54:49;344.50;;;327.58;;
18778;SDS011;9518;51.720;14.384;2022-07-23T10:57:19;136.50;;;128.15;;
18778;SDS011;9518;51.720;14.384;2022-07-23T11:02:40;378.48;;;359.63;;
18778;SDS011;9518;51.720;14.384;2022-07-23T11:05:09;110.90;;;105.45;;
18778;SDS011;9518;51.720;14.384;2022-07-23T11:10:54;112.07;;;106.18;;
18778;SDS011;9518;51.720;14.384;2022-07-23T11:13:37;69.72;;;66.10;;
18778;SDS011;9518;51.720;14.384;2022-07-23T11:16:14;117.03;;;111.28;;
18778;SDS011;9518;51.720;14.384;2022-07-23T11:21:41;349.80;;;333.08;;
18778;SDS011;9518;51.720;14.384;2022-07-23T11:24:10;369.00;;;350.85;;
18778;SDS011;9518;51.720;14.384;2022-07-23T11:26:52;197.15;;;187.80;;
18778;SDS011;9518;51.720;14.384;2022-07-23T11:32:33;233.07;;;222.00;;
18778;SDS011;9518;51.720;14.384;2022-07-23T11:35:18;205.35;;;195.32;;
18778;SDS011;9518;51.720;14.384;2022-07-23T11:37:47;132.50;;;126.00;;
18778;SDS011;9518;51.720;14.384;2022-07-23T11:40:15;181.30;;;172.80;;
18778;SDS011;9518;51.720;14.384;2022-07-23T11:42:53;258.52;;;246.20;;
18778;SDS011;9518;51.720;14.384;2022-07-23T11:45:22;357.98;;;339.92;;
18778;SDS011;9518;51.720;14.384;2022-07-23T11:47:51;578.60;;;546.38;;
18778;SDS011;9518;51.720;14.384;2022-07-23T11:50:18;551.05;;;521.40;;
18778;SDS011;9518;51.720;14.384;2022-07-23T11:52:45;549.55;;;520.22;;
18778;SDS011;9518;51.720;14.384;2022-07-23T11:55:12;542.42;;;513.47;;
18778;SDS011;9518;51.720;14.384;2022-07-23T11:57:41;445.70;;;423.08;;
18778;SDS011;9518;51.720;14.384;2022-07-23T12:00:09;476.42;;;451.80;;
18778;SDS011;9518;51.720;14.384;2022-07-23T12:02:38;126.53;;;120.50;;
18778;SDS011;9518;51.720;14.384;2022-07-23T12:05:08;108.88;;;103.28;;
18778;SDS011;9518;51.720;14.384;2022-07-23T12:07:38;577.92;;;546.22;;
18778;SDS011;9518;51.720;14.384;2022-07-23T12:10:12;897.78;;;830.10;;
18778;SDS011;9518;51.720;14.384;2022-07-23T12:12:41;1091.10;;;984.05;;
18778;SDS011;9518;51.720;14.384;2022-07-23T12:15:10;1104.68;;;992.08;;
18778;SDS011;9518;51.720;14.384;2022-07-23T12:17:38;1095.53;;;986.17;;
18778;SDS011;9518;51.720;14.384;2022-07-23T12:20:09;1092.03;;;985.08;;
18778;SDS011;9518;51.720;14.384;2022-07-23T12:22:39;1043.90;;;948.40;;
18778;SDS011;9518;51.720;14.384;2022-07-23T12:25:08;999.90;;;914.63;;
18778;SDS011;9518;51.720;14.384;2022-07-23T12:27:36;994.00;;;909.90;;
18778;SDS011;9518;51.720;14.384;2022-07-23T12:30:19;891.90;;;826.47;;
18778;SDS011;9518;51.720;14.384;2022-07-23T12:32:52;874.00;;;811.38;;
18778;SDS011;9518;51.720;14.384;2022-07-23T12:35:22;771.53;;;721.78;;
18778;SDS011;9518;51.720;14.384;2022-07-23T12:37:50;840.58;;;781.63;;
18778;SDS011;9518;51.720;14.384;2022-07-23T12:40:26;884.63;;;820.20;;
18778;SDS011;9518;51.720;14.384;2022-07-23T12:42:55;1008.63;;;921.33;;
18778;SDS011;9518;51.720;14.384;2022-07-23T12:45:23;1061.28;;;961.15;;
18778;SDS011;9518;51.720;14.384;2022-07-23T12:47:53;1113.22;;;996.10;;
18778;SDS011;9518;51.720;14.384;2022-07-23T12:53:21;1127.15;;;999.13;;
18778;SDS011;9518;51.720;14.384;2022-07-23T12:55:50;1155.47;;;999.90;;
18778;SDS011;9518;51.720;14.384;2022-07-23T12:58:24;1999.90;;;999.90;;
18778;SDS011;9518;51.720;14.384;2022-07-23T13:00:52;1999.90;;;999.90;;
18778;SDS011;9518;51.720;14.384;2022-07-23T13:03:28;1999.90;;;999.90;;
18778;SDS011;9518;51.720;14.384;2022-07-23T13:05:57;1999.90;;;999.90;;
18778;SDS011;9518;51.720;14.384;2022-07-23T13:08:26;1999.90;;;999.90;;
18778;SDS011;9518;51.720;14.384;2022-07-23T13:10:54;1999.90;;;999.90;;
18778;SDS011;9518;51.720;14.384;2022-07-23T13:13:22;1999.90;;;999.90;;
18778;SDS011;9518;51.720;14.384;2022-07-23T13:15:49;1580.53;;;999.90;;
18778;SDS011;9518;51.720;14.384;2022-07-23T13:18:17;1108.50;;;990.13;;
18778;SDS011;9518;51.720;14.384;2022-07-23T13:20:44;1128.00;;;999.90;;
18778;SDS011;9518;51.720;14.384;2022-07-23T13:23:14;1123.65;;;999.90;;
18778;SDS011;9518;51.720;14.384;2022-07-23T13:25:42;1028.70;;;936.92;;
18778;SDS011;9518;51.720;14.384;2022-07-23T13:28:09;980.75;;;900.33;;
18778;SDS011;9518;51.720;14.384;2022-07-23T13:30:38;853.60;;;792.88;;
18778;SDS011;9518;51.720;14.384;2022-07-23T13:33:05;242.20;;;229.55;;
18778;SDS011;9518;51.720;14.384;2022-07-23T13:35:33;313.25;;;298.13;;
18778;SDS011;9518;51.720;14.384;2022-07-23T13:38:01;435.63;;;413.85;;
18778;SDS011;9518;51.720;14.384;2022-07-23T13:40:30;503.08;;;477.10;;
18778;SDS011;9518;51.720;14.384;2022-07-23T13:42:57;540.75;;;511.98;;
18778;SDS011;9518;51.720;14.384;2022-07-23T13:45:24;588.08;;;556.40;;
18778;SDS011;9518;51.720;14.384;2022-07-23T13:47:51;610.55;;;577.03;;
18778;SDS011;9518;51.720;14.384;2022-07-23T13:50:18;600.03;;;567.15;;
18778;SDS011;9518;51.720;14.384;2022-07-23T13:52:44;676.42;;;634.78;;
18778;SDS011;9518;51.720;14.384;2022-07-23T13:55:11;650.95;;;613.17;;
18778;SDS011;9518;51.720;14.384;2022-07-23T13:57:40;627.15;;;592.45;;
18778;SDS011;9518;51.720;14.384;2022-07-23T14:00:07;621.40;;;586.40;;
18778;SDS011;9518;51.720;14.384;2022-07-23T14:02:36;659.67;;;621.80;;
18778;SDS011;9518;51.720;14.384;2022-07-23T14:05:04;746.10;;;699.78;;
18778;SDS011;9518;51.720;14.384;2022-07-23T14:07:33;746.38;;;699.63;;
18778;SDS011;9518;51.720;14.384;2022-07-23T14:10:00;723.75;;;679.35;;
18778;SDS011;9518;51.720;14.384;2022-07-23T14:12:28;750.53;;;703.28;;
18778;SDS011;9518;51.720;14.384;2022-07-23T14:14:56;742.05;;;696.13;;